sensor_id;sensor_type;location;lat;lon;timestamp;pressure;altitude;pressure_sealevel;temperature;humidity
72587;BME280;60621;49.576;11.024;2023-04-27T00:00:09;98519.78;;;6.98;58.28
72587;BME280;60621;49.576;11.024;2023-04-27T00:01:12;98516.38;;;6.98;58.48
72587;BME280;60621;49.576;11.024;2023-04-27T00:02:14;98516.91;;;6.91;58.30
72587;BME280;60621;49.576;11.024;2023-04-27T00:03:16;98515.94;;;6.96;58.13
72587;BME280;60621;49.576;11.024;2023-04-27T00:04:18;98507.94;;;6.92;58.20
72587;BME280;60621;49.576;11.024;2023-04-27T00:05:21;98507.84;;;6.88;58.28
72587;BME280;60621;49.576;11.024;2023-04-27T00:06:23;98513.19;;;6.80;58.46
72587;BME280;60621;49.576;11.024;2023-04-27T00:07:26;98508.22;;;6.78;58.57
72587;BME280;60621;49.576;11.024;2023-04-27T00:08:28;98514.84;;;6.84;58.37
72587;BME280;60621;49.576;11.024;2023-04-27T00:09:30;98507.53;;;6.90;58.09
72587;BME280;60621;49.576;11.024;2023-04-27T00:10:31;98499.44;;;6.95;58.15
72587;BME280;60621;49.576;11.024;2023-04-27T00:11:33;98514.84;;;6.97;57.92
72587;BME280;60621;49.576;11.024;2023-04-27T00:12:34;98509.28;;;6.98;58.63
72587;BME280;60621;49.576;11.024;2023-04-27T00:13:36;98510.38;;;6.97;58.08
72587;BME280;60621;49.576;11.024;2023-04-27T00:14:38;98505.22;;;6.88;58.65
72587;BME280;60621;49.576;11.024;2023-04-27T00:15:39;98511.53;;;6.87;58.56
72587;BME280;60621;49.576;11.024;2023-04-27T00:16:41;98515.47;;;6.81;58.54
72587;BME280;60621;49.576;11.024;2023-04-27T00:17:43;98512.63;;;6.86;58.64
72587;BME280;60621;49.576;11.024;2023-04-27T00:18:44;98500.75;;;6.89;58.42
72587;BME280;60621;49.576;11.024;2023-04-27T00:19:46;98508.03;;;6.83;58.99
72587;BME280;60621;49.576;11.024;2023-04-27T00:20:48;98509.69;;;6.88;58.94
72587;BME280;60621;49.576;11.024;2023-04-27T00:21:50;98500.00;;;6.88;59.07
72587;BME280;60621;49.576;11.024;2023-04-27T00:22:52;98497.38;;;6.88;59.16
72587;BME280;60621;49.576;11.024;2023-04-27T00:23:53;98506.09;;;6.92;59.97
72587;BME280;60621;49.576;11.024;2023-04-27T00:24:55;98497.91;;;6.94;59.58
72587;BME280;60621;49.576;11.024;2023-04-27T00:25:57;98500.63;;;6.98;59.52
72587;BME280;60621;49.576;11.024;2023-04-27T00:26:58;98498.47;;;7.00;59.65
72587;BME280;60621;49.576;11.024;2023-04-27T00:28:00;98494.00;;;7.00;59.41
72587;BME280;60621;49.576;11.024;2023-04-27T00:29:02;98489.16;;;7.02;59.51
72587;BME280;60621;49.576;11.024;2023-04-27T00:30:04;98488.53;;;7.05;59.20
72587;BME280;60621;49.576;11.024;2023-04-27T00:31:06;98492.69;;;7.06;58.79
72587;BME280;60621;49.576;11.024;2023-04-27T00:32:10;98490.72;;;7.03;59.13
72587;BME280;60621;49.576;11.024;2023-04-27T00:33:12;98491.31;;;6.88;58.43
72587;BME280;60621;49.576;11.024;2023-04-27T00:34:14;98487.59;;;6.77;59.00
72587;BME280;60621;49.576;11.024;2023-04-27T00:35:16;98487.25;;;6.78;58.98
72587;BME280;60621;49.576;11.024;2023-04-27T00:36:17;98489.44;;;6.76;59.22
72587;BME280;60621;49.576;11.024;2023-04-27T00:37:19;98494.16;;;6.83;59.42
72587;BME280;60621;49.576;11.024;2023-04-27T00:38:21;98496.56;;;6.76;59.69
72587;BME280;60621;49.576;11.024;2023-04-27T00:39:22;98492.50;;;6.78;59.72
72587;BME280;60621;49.576;11.024;2023-04-27T00:40:24;98492.63;;;6.82;59.94
72587;BME280;60621;49.576;11.024;2023-04-27T00:41:25;98490.78;;;6.82;59.77
72587;BME280;60621;49.576;11.024;2023-04-27T00:42:27;98490.22;;;6.77;59.58
72587;BME280;60621;49.576;11.024;2023-04-27T00:43:28;98484.09;;;6.73;59.84
72587;BME280;60621;49.576;11.024;2023-04-27T00:44:31;98489.66;;;6.71;60.05
72587;BME280;60621;49.576;11.024;2023-04-27T00:45:38;98497.00;;;6.78;60.63
72587;BME280;60621;49.576;11.024;2023-04-27T00:46:42;98492.19;;;6.80;60.50
72587;BME280;60621;49.576;11.024;2023-04-27T00:47:44;98488.91;;;6.83;60.28
72587;BME280;60621;49.576;11.024;2023-04-27T00:48:46;98493.84;;;6.84;60.52
72587;BME280;60621;49.576;11.024;2023-04-27T00:49:48;98491.88;;;6.81;60.27
72587;BME280;60621;49.576;11.024;2023-04-27T00:50:49;98488.16;;;6.82;59.69
72587;BME280;60621;49.576;11.024;2023-04-27T00:51:51;98487.72;;;6.80;59.65
72587;BME280;60621;49.576;11.024;2023-04-27T00:52:52;98484.63;;;6.78;59.94
72587;BME280;60621;49.576;11.024;2023-04-27T00:53:56;98480.16;;;6.79;59.24
72587;BME280;60621;49.576;11.024;2023-04-27T00:54:58;98487.72;;;6.80;59.58
72587;BME280;60621;49.576;11.024;2023-04-27T00:56:04;98486.41;;;6.74;59.63
72587;BME280;60621;49.576;11.024;2023-04-27T00:57:06;98488.69;;;6.76;60.22
72587;BME280;60621;49.576;11.024;2023-04-27T00:58:08;98481.38;;;6.81;59.72
72587;BME280;60621;49.576;11.024;2023-04-27T00:59:09;98484.44;;;6.83;60.02
72587;BME280;60621;49.576;11.024;2023-04-27T01:00:11;98479.84;;;6.80;59.32
72587;BME280;60621;49.576;11.024;2023-04-27T01:01:13;98481.59;;;6.76;59.11
72587;BME280;60621;49.576;11.024;2023-04-27T01:02:15;98485.31;;;6.75;59.94
72587;BME280;60621;49.576;11.024;2023-04-27T01:03:17;98486.28;;;6.71;59.30
72587;BME280;60621;49.576;11.024;2023-04-27T01:04:18;98481.78;;;6.71;59.75
72587;BME280;60621;49.576;11.024;2023-04-27T01:05:20;98477.44;;;6.75;59.49
72587;BME280;60621;49.576;11.024;2023-04-27T01:06:22;98480.50;;;6.77;59.78
72587;BME280;60621;49.576;11.024;2023-04-27T01:07:24;98482.34;;;6.77;60.14
72587;BME280;60621;49.576;11.024;2023-04-27T01:08:27;98482.34;;;6.77;60.05
72587;BME280;60621;49.576;11.024;2023-04-27T01:09:29;98483.56;;;6.79;59.43
72587;BME280;60621;49.576;11.024;2023-04-27T01:10:31;98486.84;;;6.76;59.82
72587;BME280;60621;49.576;11.024;2023-04-27T01:11:33;98489.44;;;6.76;59.74
72587;BME280;60621;49.576;11.024;2023-04-27T01:12:34;98485.19;;;6.72;59.70
72587;BME280;60621;49.576;11.024;2023-04-27T01:13:36;98490.09;;;6.73;60.06
72587;BME280;60621;49.576;11.024;2023-04-27T01:14:38;98485.94;;;6.72;59.98
72587;BME280;60621;49.576;11.024;2023-04-27T01:15:39;98485.81;;;6.68;60.15
72587;BME280;60621;49.576;11.024;2023-04-27T01:16:41;98480.81;;;6.76;59.86
72587;BME280;60621;49.576;11.024;2023-04-27T01:17:42;98484.34;;;6.80;60.42
72587;BME280;60621;49.576;11.024;2023-04-27T01:18:45;98486.63;;;6.81;60.10
72587;BME280;60621;49.576;11.024;2023-04-27T01:19:47;98486.69;;;6.73;60.45
72587;BME280;60621;49.576;11.024;2023-04-27T01:20:50;98489.44;;;6.76;59.77
72587;BME280;60621;49.576;11.024;2023-04-27T01:21:51;98497.66;;;6.75;60.23
72587;BME280;60621;49.576;11.024;2023-04-27T01:22:53;98490.09;;;6.73;60.53
72587;BME280;60621;49.576;11.024;2023-04-27T01:23:54;98490.22;;;6.77;60.11
72587;BME280;60621;49.576;11.024;2023-04-27T01:24:56;98488.22;;;6.74;60.06
72587;BME280;60621;49.576;11.024;2023-04-27T01:25:57;98489.31;;;6.73;60.32
72587;BME280;60621;49.576;11.024;2023-04-27T01:26:59;98494.13;;;6.71;60.01
72587;BME280;60621;49.576;11.024;2023-04-27T01:28:02;98497.72;;;6.66;60.09
72587;BME280;60621;49.576;11.024;2023-04-27T01:29:03;98492.47;;;6.66;60.52
72587;BME280;60621;49.576;11.024;2023-04-27T01:30:07;98495.75;;;6.63;60.83
72587;BME280;60621;49.576;11.024;2023-04-27T01:31:09;98492.00;;;6.52;60.79
72587;BME280;60621;49.576;11.024;2023-04-27T01:32:11;98490.38;;;6.59;60.46
72587;BME280;60621;49.576;11.024;2023-04-27T01:33:13;98493.13;;;6.63;60.57
72587;BME280;60621;49.576;11.024;2023-04-27T01:34:15;98491.94;;;6.60;60.84
72587;BME280;60621;49.576;11.024;2023-04-27T01:35:17;98494.66;;;6.64;60.54
72587;BME280;60621;49.576;11.024;2023-04-27T01:36:18;98488.97;;;6.62;60.91
72587;BME280;60621;49.576;11.024;2023-04-27T01:37:20;98496.97;;;6.65;60.82
72587;BME280;60621;49.576;11.024;2023-04-27T01:38:22;98494.97;;;6.62;60.05
72587;BME280;60621;49.576;11.024;2023-04-27T01:39:24;98494.22;;;6.62;59.93
72587;BME280;60621;49.576;11.024;2023-04-27T01:40:26;98491.03;;;6.56;60.38
72587;BME280;60621;49.576;11.024;2023-04-27T01:41:28;98487.19;;;6.54;60.37
72587;BME280;60621;49.576;11.024;2023-04-27T01:42:29;98499.31;;;6.58;60.71
72587;BME280;60621;49.576;11.024;2023-04-27T01:43:31;98488.84;;;6.58;60.29
72587;BME280;60621;49.576;11.024;2023-04-27T01:44:32;98493.31;;;6.58;60.90
72587;BME280;60621;49.576;11.024;2023-04-27T01:45:34;98491.25;;;6.63;60.36
72587;BME280;60621;49.576;11.024;2023-04-27T01:46:35;98489.41;;;6.64;60.60
72587;BME280;60621;49.576;11.024;2023-04-27T01:47:37;98492.03;;;6.64;60.41
72587;BME280;60621;49.576;11.024;2023-04-27T01:48:39;98491.59;;;6.62;60.52
72587;BME280;60621;49.576;11.024;2023-04-27T01:49:41;98491.16;;;6.60;60.74
72587;BME280;60621;49.576;11.024;2023-04-27T01:50:43;98494.22;;;6.62;60.70
72587;BME280;60621;49.576;11.024;2023-04-27T01:51:44;98488.63;;;6.63;60.82
72587;BME280;60621;49.576;11.024;2023-04-27T01:52:46;98499.31;;;6.58;60.81
72587;BME280;60621;49.576;11.024;2023-04-27T01:53:48;98492.22;;;6.59;61.12
72587;BME280;60621;49.576;11.024;2023-04-27T01:54:50;98493.44;;;6.61;60.43
72587;BME280;60621;49.576;11.024;2023-04-27T01:55:52;98489.72;;;6.62;60.62
72587;BME280;60621;49.576;11.024;2023-04-27T01:56:53;98500.09;;;6.59;60.88
72587;BME280;60621;49.576;11.024;2023-04-27T01:57:55;98497.16;;;6.60;60.97
72587;BME280;60621;49.576;11.024;2023-04-27T01:58:57;98494.41;;;6.57;60.83
72587;BME280;60621;49.576;11.024;2023-04-27T01:59:58;98499.03;;;6.60;60.61
72587;BME280;60621;49.576;11.024;2023-04-27T02:01:00;98493.00;;;6.59;60.66
72587;BME280;60621;49.576;11.024;2023-04-27T02:02:01;98495.19;;;6.57;60.39
72587;BME280;60621;49.576;11.024;2023-04-27T02:03:04;98495.81;;;6.54;60.56
72587;BME280;60621;49.576;11.024;2023-04-27T02:04:05;98494.63;;;6.52;60.69
72587;BME280;60621;49.576;11.024;2023-04-27T02:05:07;98493.09;;;6.51;60.41
72587;BME280;60621;49.576;11.024;2023-04-27T02:06:09;98493.41;;;6.49;61.07
72587;BME280;60621;49.576;11.024;2023-04-27T02:07:11;98497.25;;;6.52;61.14
72587;BME280;60621;49.576;11.024;2023-04-27T02:08:13;98491.22;;;6.51;60.89
72587;BME280;60621;49.576;11.024;2023-04-27T02:09:14;98494.81;;;6.47;60.74
72587;BME280;60621;49.576;11.024;2023-04-27T02:10:16;98493.25;;;6.46;61.29
72587;BME280;60621;49.576;11.024;2023-04-27T02:11:18;98489.78;;;6.41;61.15
72587;BME280;60621;49.576;11.024;2023-04-27T02:12:20;98490.53;;;6.42;61.57
72587;BME280;60621;49.576;11.024;2023-04-27T02:13:22;98489.13;;;6.45;61.76
72587;BME280;60621;49.576;11.024;2023-04-27T02:14:23;98489.56;;;6.47;61.71
72587;BME280;60621;49.576;11.024;2023-04-27T02:15:27;98488.81;;;6.46;61.12
72587;BME280;60621;49.576;11.024;2023-04-27T02:16:29;98494.06;;;6.46;61.53
72587;BME280;60621;49.576;11.024;2023-04-27T02:17:33;98491.09;;;6.48;61.52
72587;BME280;60621;49.576;11.024;2023-04-27T02:18:35;98494.56;;;6.39;61.62
72587;BME280;60621;49.576;11.024;2023-04-27T02:19:36;98494.94;;;6.29;61.49
72587;BME280;60621;49.576;11.024;2023-04-27T02:20:38;98492.47;;;6.33;61.87
72587;BME280;60621;49.576;11.024;2023-04-27T02:21:39;98498.59;;;6.37;62.34
72587;BME280;60621;49.576;11.024;2023-04-27T02:22:41;98491.31;;;6.43;61.95
72587;BME280;60621;49.576;11.024;2023-04-27T02:23:44;98495.78;;;6.42;61.63
72587;BME280;60621;49.576;11.024;2023-04-27T02:24:45;98495.66;;;6.38;61.30
72587;BME280;60621;49.576;11.024;2023-04-27T02:25:47;98501.09;;;6.33;60.91
72587;BME280;60621;49.576;11.024;2023-04-27T02:26:48;98493.09;;;6.30;61.24
72587;BME280;60621;49.576;11.024;2023-04-27T02:27:50;98500.19;;;6.29;61.56
72587;BME280;60621;49.576;11.024;2023-04-27T02:28:51;98498.13;;;6.35;61.51
72587;BME280;60621;49.576;11.024;2023-04-27T02:29:53;98497.19;;;6.39;61.51
72587;BME280;60621;49.576;11.024;2023-04-27T02:30:55;98492.41;;;6.41;61.32
72587;BME280;60621;49.576;11.024;2023-04-27T02:31:57;98500.13;;;6.38;61.05
72587;BME280;60621;49.576;11.024;2023-04-27T02:32:59;98496.53;;;6.43;61.23
72587;BME280;60621;49.576;11.024;2023-04-27T02:34:03;98499.94;;;6.43;61.57
72587;BME280;60621;49.576;11.024;2023-04-27T02:35:05;98503.66;;;6.42;61.70
72587;BME280;60621;49.576;11.024;2023-04-27T02:36:07;98503.66;;;6.42;61.40
72587;BME280;60621;49.576;11.024;2023-04-27T02:37:09;98505.38;;;6.38;61.26
72587;BME280;60621;49.576;11.024;2023-04-27T02:38:11;98502.94;;;6.33;61.96
72587;BME280;60621;49.576;11.024;2023-04-27T02:39:13;98506.91;;;6.39;61.88
72587;BME280;60621;49.576;11.024;2023-04-27T02:40:15;98513.03;;;6.43;61.58
72587;BME280;60621;49.576;11.024;2023-04-27T02:41:17;98515.53;;;6.39;61.90
72587;BME280;60621;49.576;11.024;2023-04-27T02:42:18;98508.88;;;6.42;61.51
72587;BME280;60621;49.576;11.024;2023-04-27T02:43:20;98504.06;;;6.44;61.84
72587;BME280;60621;49.576;11.024;2023-04-27T02:44:22;98506.25;;;6.42;61.98
72587;BME280;60621;49.576;11.024;2023-04-27T02:45:23;98512.13;;;6.39;61.94
72587;BME280;60621;49.576;11.024;2023-04-27T02:46:25;98512.91;;;6.39;61.79
72587;BME280;60621;49.576;11.024;2023-04-27T02:47:27;98513.06;;;6.22;62.10
72587;BME280;60621;49.576;11.024;2023-04-27T02:48:29;98509.41;;;6.14;62.45
72587;BME280;60621;49.576;11.024;2023-04-27T02:49:31;98511.25;;;6.14;62.46
72587;BME280;60621;49.576;11.024;2023-04-27T02:50:32;98504.91;;;6.15;62.64
72587;BME280;60621;49.576;11.024;2023-04-27T02:51:34;98508.88;;;6.21;62.43
72587;BME280;60621;49.576;11.024;2023-04-27T02:52:35;98505.34;;;6.17;62.24
72587;BME280;60621;49.576;11.024;2023-04-27T02:53:37;98507.59;;;6.06;62.45
72587;BME280;60621;49.576;11.024;2023-04-27T02:54:38;98504.41;;;6.01;62.83
72587;BME280;60621;49.576;11.024;2023-04-27T02:55:44;98510.22;;;6.06;62.84
72587;BME280;60621;49.576;11.024;2023-04-27T02:56:48;98512.66;;;6.11;62.38
72587;BME280;60621;49.576;11.024;2023-04-27T02:57:49;98509.41;;;6.14;62.71
72587;BME280;60621;49.576;11.024;2023-04-27T02:58:51;98516.50;;;6.14;62.53
72587;BME280;60621;49.576;11.024;2023-04-27T02:59:53;98516.16;;;6.15;62.92
72587;BME280;60621;49.576;11.024;2023-04-27T03:00:55;98516.63;;;6.18;62.94
72587;BME280;60621;49.576;11.024;2023-04-27T03:01:57;98514.88;;;6.22;62.86
72587;BME280;60621;49.576;11.024;2023-04-27T03:02:59;98511.97;;;6.23;62.88
72587;BME280;60621;49.576;11.024;2023-04-27T03:04:01;98510.09;;;6.24;63.10
72587;BME280;60621;49.576;11.024;2023-04-27T03:05:03;98525.19;;;6.27;63.16
72587;BME280;60621;49.576;11.024;2023-04-27T03:06:05;98518.88;;;6.28;62.96
72587;BME280;60621;49.576;11.024;2023-04-27T03:07:07;98511.44;;;6.30;62.53
72587;BME280;60621;49.576;11.024;2023-04-27T03:08:09;98516.88;;;6.25;62.25
72587;BME280;60621;49.576;11.024;2023-04-27T03:09:10;98516.09;;;6.24;62.47
72587;BME280;60621;49.576;11.024;2023-04-27T03:10:13;98513.63;;;6.28;62.48
72587;BME280;60621;49.576;11.024;2023-04-27T03:11:14;98511.31;;;6.26;62.15
72587;BME280;60621;49.576;11.024;2023-04-27T03:12:16;98507.28;;;6.29;61.98
72587;BME280;60621;49.576;11.024;2023-04-27T03:13:18;98511.00;;;6.28;62.35
72587;BME280;60621;49.576;11.024;2023-04-27T03:14:19;98510.03;;;6.32;61.78
72587;BME280;60621;49.576;11.024;2023-04-27T03:15:21;98511.56;;;6.33;61.88
72587;BME280;60621;49.576;11.024;2023-04-27T03:16:22;98513.84;;;6.35;61.86
72587;BME280;60621;49.576;11.024;2023-04-27T03:17:24;98517.13;;;6.32;61.83
72587;BME280;60621;49.576;11.024;2023-04-27T03:18:26;98518.09;;;6.27;61.91
72587;BME280;60621;49.576;11.024;2023-04-27T03:19:27;98516.94;;;6.16;63.14
72587;BME280;60621;49.576;11.024;2023-04-27T03:20:29;98516.63;;;6.18;62.59
72587;BME280;60621;49.576;11.024;2023-04-27T03:21:30;98514.56;;;6.23;62.71
72587;BME280;60621;49.576;11.024;2023-04-27T03:22:32;98516.44;;;6.23;62.22
72587;BME280;60621;49.576;11.024;2023-04-27T03:23:33;98518.28;;;6.22;62.16
72587;BME280;60621;49.576;11.024;2023-04-27T03:24:35;98515.84;;;6.17;62.54
72587;BME280;60621;49.576;11.024;2023-04-27T03:25:37;98514.56;;;6.23;62.30
72587;BME280;60621;49.576;11.024;2023-04-27T03:26:38;98523.19;;;6.24;62.60
72587;BME280;60621;49.576;11.024;2023-04-27T03:27:40;98522.44;;;6.23;61.74
72587;BME280;60621;49.576;11.024;2023-04-27T03:28:43;98522.88;;;6.25;62.17
72587;BME280;60621;49.576;11.024;2023-04-27T03:29:45;98520.72;;;6.27;61.76
72587;BME280;60621;49.576;11.024;2023-04-27T03:30:46;98523.53;;;6.22;61.75
72587;BME280;60621;49.576;11.024;2023-04-27T03:31:48;98515.66;;;6.22;62.49
72587;BME280;60621;49.576;11.024;2023-04-27T03:32:49;98516.44;;;6.23;62.13
72587;BME280;60621;49.576;11.024;2023-04-27T03:33:51;98511.75;;;6.28;62.55
72587;BME280;60621;49.576;11.024;2023-04-27T03:34:52;98517.13;;;6.32;62.09
72587;BME280;60621;49.576;11.024;2023-04-27T03:35:55;98514.06;;;6.30;62.10
72587;BME280;60621;49.576;11.024;2023-04-27T03:36:57;98518.72;;;6.24;62.40
72587;BME280;60621;49.576;11.024;2023-04-27T03:37:59;98522.44;;;6.23;61.97
72587;BME280;60621;49.576;11.024;2023-04-27T03:39:00;98524.72;;;6.25;62.47
72587;BME280;60621;49.576;11.024;2023-04-27T03:40:02;98519.16;;;6.26;62.62
72587;BME280;60621;49.576;11.024;2023-04-27T03:41:07;98530.88;;;6.29;62.24
72587;BME280;60621;49.576;11.024;2023-04-27T03:42:09;98528.88;;;6.26;62.51
72587;BME280;60621;49.576;11.024;2023-04-27T03:43:10;98529.34;;;6.28;62.37
72587;BME280;60621;49.576;11.024;2023-04-27T03:44:12;98531.63;;;6.29;62.32
72587;BME280;60621;49.576;11.024;2023-04-27T03:45:14;98528.44;;;6.24;62.52
72587;BME280;60621;49.576;11.024;2023-04-27T03:46:16;98539.06;;;6.27;62.55
72587;BME280;60621;49.576;11.024;2023-04-27T03:47:18;98537.97;;;6.28;62.44
72587;BME280;60621;49.576;11.024;2023-04-27T03:48:20;98537.97;;;6.28;62.79
72587;BME280;60621;49.576;11.024;2023-04-27T03:49:22;98535.69;;;6.27;63.22
72587;BME280;60621;49.576;11.024;2023-04-27T03:50:24;98534.13;;;6.26;62.65
72587;BME280;60621;49.576;11.024;2023-04-27T03:51:25;98537.69;;;6.21;62.58
72587;BME280;60621;49.576;11.024;2023-04-27T03:52:27;98543.41;;;6.23;63.10
72587;BME280;60621;49.576;11.024;2023-04-27T03:53:29;98541.34;;;6.29;62.49
72587;BME280;60621;49.576;11.024;2023-04-27T03:54:30;98542.44;;;6.28;62.85
72587;BME280;60621;49.576;11.024;2023-04-27T03:55:32;98541.34;;;6.29;62.78
72587;BME280;60621;49.576;11.024;2023-04-27T03:56:34;98547.16;;;6.34;62.40
72587;BME280;60621;49.576;11.024;2023-04-27T03:57:35;98541.53;;;6.24;62.77
72587;BME280;60621;49.576;11.024;2023-04-27T03:58:37;98538.53;;;6.13;63.19
72587;BME280;60621;49.576;11.024;2023-04-27T03:59:38;98537.69;;;6.21;63.40
72587;BME280;60621;49.576;11.024;2023-04-27T04:00:40;98543.84;;;6.25;63.05
72587;BME280;60621;49.576;11.024;2023-04-27T04:01:41;98544.59;;;6.26;63.05
72587;BME280;60621;49.576;11.024;2023-04-27T04:02:44;98547.34;;;6.29;62.27
72587;BME280;60621;49.576;11.024;2023-04-27T04:03:46;98548.13;;;6.30;63.16
72587;BME280;60621;49.576;11.024;2023-04-27T04:04:48;98552.59;;;6.29;62.74
72587;BME280;60621;49.576;11.024;2023-04-27T04:05:50;98551.19;;;6.32;63.07
72587;BME280;60621;49.576;11.024;2023-04-27T04:06:53;98549.78;;;6.34;62.94
72587;BME280;60621;49.576;11.024;2023-04-27T04:07:56;98553.63;;;6.37;62.91
72587;BME280;60621;49.576;11.024;2023-04-27T04:08:57;98543.00;;;6.33;62.44
72587;BME280;60621;49.576;11.024;2023-04-27T04:09:59;98543.97;;;6.29;62.94
72587;BME280;60621;49.576;11.024;2023-04-27T04:11:01;98549.25;;;6.20;63.41
72587;BME280;60621;49.576;11.024;2023-04-27T04:12:02;98541.41;;;6.20;63.09
72587;BME280;60621;49.576;11.024;2023-04-27T04:13:04;98550.03;;;6.21;62.88
72587;BME280;60621;49.576;11.024;2023-04-27T04:14:05;98548.50;;;6.20;63.17
72587;BME280;60621;49.576;11.024;2023-04-27T04:15:07;98547.22;;;6.26;62.96
72587;BME280;60621;49.576;11.024;2023-04-27T04:16:09;98543.53;;;6.27;62.59
72587;BME280;60621;49.576;11.024;2023-04-27T04:17:11;98538.34;;;6.18;63.33
72587;BME280;60621;49.576;11.024;2023-04-27T04:18:13;98549.72;;;6.22;63.77
72587;BME280;60621;49.576;11.024;2023-04-27T04:19:14;98543.53;;;6.27;62.99
72587;BME280;60621;49.576;11.024;2023-04-27T04:20:16;98537.19;;;6.28;63.20
72587;BME280;60621;49.576;11.024;2023-04-27T04:21:18;98539.69;;;6.24;63.61
72587;BME280;60621;49.576;11.024;2023-04-27T04:22:20;98530.59;;;6.22;63.80
72587;BME280;60621;49.576;11.024;2023-04-27T04:23:21;98533.53;;;6.20;63.78
72587;BME280;60621;49.576;11.024;2023-04-27T04:24:23;98536.09;;;6.29;63.54
72587;BME280;60621;49.576;11.024;2023-04-27T04:25:25;98531.00;;;6.32;62.89
72587;BME280;60621;49.576;11.024;2023-04-27T04:26:27;98528.50;;;6.36;62.63
72587;BME280;60621;49.576;11.024;2023-04-27T04:27:29;98536.06;;;6.37;62.88
72587;BME280;60621;49.576;11.024;2023-04-27T04:28:31;98532.06;;;6.31;62.53
72587;BME280;60621;49.576;11.024;2023-04-27T04:29:33;98541.03;;;6.30;62.54
72587;BME280;60621;49.576;11.024;2023-04-27T04:30:34;98535.16;;;6.33;62.98
72587;BME280;60621;49.576;11.024;2023-04-27T04:31:36;98537.00;;;6.33;62.42
72587;BME280;60621;49.576;11.024;2023-04-27T04:32:38;98530.25;;;6.32;62.62
72587;BME280;60621;49.576;11.024;2023-04-27T04:33:40;98540.38;;;6.33;62.78
72587;BME280;60621;49.576;11.024;2023-04-27T04:34:42;98537.97;;;6.28;61.93
72587;BME280;60621;49.576;11.024;2023-04-27T04:35:43;98528.56;;;6.27;62.41
72587;BME280;60621;49.576;11.024;2023-04-27T04:36:46;98541.34;;;6.29;62.72
72587;BME280;60621;49.576;11.024;2023-04-27T04:37:47;98537.31;;;6.31;62.51
72587;BME280;60621;49.576;11.024;2023-04-27T04:38:49;98539.31;;;6.34;62.72
72587;BME280;60621;49.576;11.024;2023-04-27T04:39:50;98537.91;;;6.37;62.63
72587;BME280;60621;49.576;11.024;2023-04-27T04:40:52;98540.63;;;6.40;62.61
72587;BME280;60621;49.576;11.024;2023-04-27T04:41:54;98540.44;;;6.46;62.72
72587;BME280;60621;49.576;11.024;2023-04-27T04:42:55;98536.63;;;6.43;63.02
72587;BME280;60621;49.576;11.024;2023-04-27T04:43:57;98536.00;;;6.46;63.05
72587;BME280;60621;49.576;11.024;2023-04-27T04:44:59;98537.19;;;6.49;63.46
72587;BME280;60621;49.576;11.024;2023-04-27T04:46:01;98541.34;;;6.50;63.22
72587;BME280;60621;49.576;11.024;2023-04-27T04:47:04;98542.44;;;6.49;62.83
72587;BME280;60621;49.576;11.024;2023-04-27T04:48:06;98539.38;;;6.47;63.07
72587;BME280;60621;49.576;11.024;2023-04-27T04:49:09;98547.53;;;6.45;63.22
72587;BME280;60621;49.576;11.024;2023-04-27T04:50:11;98539.38;;;6.47;63.21
72587;BME280;60621;49.576;11.024;2023-04-27T04:51:13;98543.19;;;6.49;63.16
72587;BME280;60621;49.576;11.024;2023-04-27T04:52:14;98553.66;;;6.49;63.04
72587;BME280;60621;49.576;11.024;2023-04-27T04:53:16;98547.66;;;6.49;62.97
72587;BME280;60621;49.576;11.024;2023-04-27T04:54:18;98543.66;;;6.51;62.48
72587;BME280;60621;49.576;11.024;2023-04-27T04:55:20;98539.81;;;6.49;62.73
72587;BME280;60621;49.576;11.024;2023-04-27T04:56:22;98546.06;;;6.56;62.16
72587;BME280;60621;49.576;11.024;2023-04-27T04:57:23;98543.38;;;6.44;62.05
72587;BME280;60621;49.576;11.024;2023-04-27T04:58:25;98542.19;;;6.41;62.38
72587;BME280;60621;49.576;11.024;2023-04-27T04:59:26;98549.53;;;6.48;62.33
72587;BME280;60621;49.576;11.024;2023-04-27T05:00:30;98545.31;;;6.56;62.13
72587;BME280;60621;49.576;11.024;2023-04-27T05:01:31;98549.47;;;6.57;61.93
72587;BME280;60621;49.576;11.024;2023-04-27T05:02:33;98545.75;;;6.58;62.26
72587;BME280;60621;49.576;11.024;2023-04-27T05:03:35;98546.50;;;6.58;62.14
72587;BME280;60621;49.576;11.024;2023-04-27T05:04:37;98537.88;;;6.58;62.25
72587;BME280;60621;49.576;11.024;2023-04-27T05:05:39;98547.75;;;6.61;62.51
72587;BME280;60621;49.576;11.024;2023-04-27T05:06:40;98545.69;;;6.66;62.36
72587;BME280;60621;49.576;11.024;2023-04-27T05:07:45;98550.28;;;6.70;62.31
72587;BME280;60621;49.576;11.024;2023-04-27T05:08:50;98550.28;;;6.70;61.51
72587;BME280;60621;49.576;11.024;2023-04-27T05:09:52;98543.81;;;6.67;62.09
72587;BME280;60621;49.576;11.024;2023-04-27T05:10:53;98548.50;;;6.61;61.87
72587;BME280;60621;49.576;11.024;2023-04-27T05:11:55;98552.78;;;6.66;62.27
72587;BME280;60621;49.576;11.024;2023-04-27T05:12:57;98555.97;;;6.72;62.75
72587;BME280;60621;49.576;11.024;2023-04-27T05:13:58;98550.84;;;6.75;62.03
72587;BME280;60621;49.576;11.024;2023-04-27T05:15:00;98555.75;;;6.77;62.05
72587;BME280;60621;49.576;11.024;2023-04-27T05:16:05;98555.34;;;6.75;62.36
72587;BME280;60621;49.576;11.024;2023-04-27T05:17:07;98555.13;;;6.80;62.33
72587;BME280;60621;49.576;11.024;2023-04-27T05:18:09;98554.16;;;6.84;62.33
72587;BME280;60621;49.576;11.024;2023-04-27T05:19:10;98554.59;;;6.86;62.51
72587;BME280;60621;49.576;11.024;2023-04-27T05:20:13;98556.44;;;6.86;62.17
72587;BME280;60621;49.576;11.024;2023-04-27T05:21:16;98560.47;;;6.83;62.39
72587;BME280;60621;49.576;11.024;2023-04-27T05:22:21;98564.44;;;6.89;62.33
72587;BME280;60621;49.576;11.024;2023-04-27T05:23:22;98563.56;;;6.85;62.81
72587;BME280;60621;49.576;11.024;2023-04-27T05:24:24;98570.13;;;6.91;61.83
72587;BME280;60621;49.576;11.024;2023-04-27T05:25:32;98564.66;;;6.84;61.53
72587;BME280;60621;49.576;11.024;2023-04-27T05:26:34;98571.66;;;6.92;62.03
72587;BME280;60621;49.576;11.024;2023-04-27T05:27:36;98567.09;;;7.02;61.84